ADDS METAR Data INFO
IDs: Format: Raw Decoded Include TAF

Data at: 0140 UTC 18 Oct 2017

KAXH 180135Z AUTO 00000KT 10SM CLR 14/11 A3017 RMK AO2 T01390109
KAXH 180115Z AUTO 00000KT 10SM CLR 14/11 A3017 RMK AO2 T01410111
KAXH 180055Z AUTO 00000KT 10SM CLR 15/11 A3016 RMK AO2 T01450110
KAXH 180035Z AUTO 00000KT 10SM CLR 16/11 A3016 RMK AO2 T01560105
KAXH 180015Z AUTO 00000KT 10SM CLR 18/10 A3015 RMK AO2 T01840097
KAXH 172355Z AUTO 00000KT 10SM CLR 20/10 A3014 RMK AO2 T01960095 10254 20196
KAXH 172335Z AUTO 00000KT 10SM CLR 22/09 A3014 RMK AO2 T02150087
KAXH 172315Z AUTO 06003KT 10SM CLR 23/08 A3014 RMK AO2 T02310078
KAXH 172255Z AUTO 01003KT 10SM CLR 24/07 A3013 RMK AO2 T02360067
KAXH 172235Z AUTO 02005KT 10SM CLR 24/07 A3014 RMK AO2 T02430072
KAXH 172215Z AUTO 00000KT 10SM CLR 25/06 A3014 RMK AO2 T02450064
KAXH 172155Z AUTO 02004KT 10SM CLR 25/07 A3014 RMK AO2 T02490067
KAXH 172135Z AUTO 01003KT 10SM CLR 25/07 A3014 RMK AO2 T02490070
KAXH 172115Z AUTO 04004KT 10SM CLR 25/07 A3014 RMK AO2 T02540070
KAXH 172055Z AUTO 07004KT 10SM CLR 25/07 A3015 RMK AO2 T02490066
KAXH 172035Z AUTO 36005KT 10SM CLR 25/07 A3015 RMK AO2 T02490066
KAXH 172015Z AUTO 05005KT 10SM CLR 25/07 A3016 RMK AO2 T02510073
KAXH 171955Z AUTO 02006KT 10SM CLR 25/06 A3017 RMK AO2 T02480064
KAXH 171935Z AUTO 03006KT 10SM CLR 25/08 A3018 RMK AO2 T02460075
KAXH 171915Z AUTO 36006KT 10SM CLR 24/07 A3019 RMK AO2 T02370065
KAXH 171855Z AUTO 02005KT 10SM CLR 24/07 A3019 RMK AO2 T02360067
KAXH 171835Z AUTO 02005KT 10SM CLR 23/07 A3021 RMK AO2 T02320069
KAXH 171815Z AUTO 04006KT 10SM CLR 23/07 A3023 RMK AO2 T02290071
KAXH 171755Z AUTO 33007KT 10SM CLR 23/07 A3024 RMK AO2 T02250071 10227 20105
KAXH 171735Z AUTO 04006KT 10SM CLR 22/08 A3024 RMK AO2 T02200079
KAXH 171715Z AUTO 08003KT 10SM CLR 22/08 A3025 RMK AO2 T02180081
KAXH 171655Z AUTO 02003KT 10SM CLR 21/09 A3026 RMK AO2 T02120085
KAXH 171635Z AUTO 04005KT 10SM CLR 21/08 A3027 RMK AO2 T02070083
KAXH 171615Z AUTO 03006KT 10SM CLR 20/08 A3027 RMK AO2 T02010080
KAXH 171555Z AUTO 03006KT 10SM CLR 20/09 A3027 RMK AO2 T01960086
KAXH 171535Z AUTO 03006KT 10SM CLR 19/08 A3028 RMK AO2 T01880084
KAXH 171515Z AUTO 05008KT 10SM CLR 18/08 A3029 RMK AO2 T01830084
KAXH 171455Z AUTO 04007KT 10SM CLR 18/08 A3029 RMK AO2 T01750083
KAXH 171435Z AUTO 05003KT 10SM CLR 16/09 A3028 RMK AO2 T01640086
KAXH 171415Z AUTO 04006KT 10SM CLR 15/09 A3028 RMK AO2 T01540089
KAXH 171355Z AUTO 04004KT 10SM CLR 14/09 A3028 RMK AO2 T01430088
KAXH 171335Z AUTO 05003KT 10SM CLR 13/09 A3027 RMK AO2 T01340085
KAXH 171315Z AUTO 03003KT 10SM CLR 12/08 A3026 RMK AO2 T01230081
KAXH 171255Z AUTO 02003KT 10SM CLR 11/08 A3026 RMK AO2 T01110075
KAXH 171235Z AUTO 00000KT 10SM CLR 11/07 A3025 RMK AO2 T01070073
KAXH 171215Z AUTO 00000KT 10SM CLR 11/08 A3025 RMK AO2 T01050075
KAXH 171155Z AUTO 01003KT 10SM CLR 11/08 A3025 RMK AO2 T01080075 10141 20101
KAXH 171135Z AUTO 00000KT 10SM CLR 11/08 A3024 RMK AO2 T01100075
KAXH 171115Z AUTO 00000KT 10SM CLR 11/08 A3024 RMK AO2 T01070076
KAXH 171055Z AUTO 00000KT 10SM CLR 10/08 A3024 RMK AO2 T01030077
KAXH 171035Z AUTO 00000KT 10SM CLR 10/08 A3023 RMK AO2 T01010076
KAXH 171015Z AUTO 00000KT 10SM CLR 11/08 A3023 RMK AO2 T01100077
KAXH 170955Z AUTO 00000KT 10SM CLR 12/08 A3022 RMK AO2 T01160080
KAXH 170935Z AUTO 00000KT 10SM CLR 12/08 A3022 RMK AO2 T01190080
KAXH 170915Z AUTO 00000KT 10SM CLR 13/08 A3022 RMK AO2 T01250082
KAXH 170855Z AUTO 00000KT 10SM CLR 13/08 A3022 RMK AO2 T01320081
KAXH 170835Z AUTO 00000KT 10SM CLR 13/08 A3022 RMK AO2 T01330081
KAXH 170815Z AUTO 04004KT 10SM CLR 14/08 A3022 RMK AO2 T01350078
KAXH 170755Z AUTO 05004KT 10SM CLR 14/08 A3023 RMK AO2 T01350079
KAXH 170735Z AUTO 00000KT 10SM CLR 13/08 A3024 RMK AO2 T01320084
KAXH 170715Z AUTO 00000KT 10SM CLR 13/09 A3023 RMK AO2 T01320088
KAXH 170655Z AUTO 00000KT 10SM CLR 14/09 A3023 RMK AO2 T01400087
KAXH 170635Z AUTO 00000KT 10SM CLR 14/09 A3023 RMK AO2 T01400087
KAXH 170615Z AUTO 00000KT 10SM CLR 13/09 A3024 RMK AO2 T01330090
KAXH 170555Z AUTO 00000KT 10SM CLR 13/09 A3024 RMK AO2 T01340089 10203 20134
KAXH 170535Z AUTO 00000KT 10SM CLR 15/09 A3024 RMK AO2 T01520089
KAXH 170515Z AUTO 00000KT 10SM CLR 15/09 A3024 RMK AO2 T01540088
KAXH 170455Z AUTO 04003KT 10SM CLR 16/09 A3024 RMK AO2 T01570089
KAXH 170435Z AUTO 04004KT 10SM CLR 16/09 A3024 RMK AO2 T01610090
KAXH 170415Z AUTO 04004KT 10SM CLR 17/09 A3024 RMK AO2 T01650088
KAXH 170355Z AUTO 03005KT 10SM CLR 17/09 A3024 RMK AO2 T01700085
KAXH 170335Z AUTO 04005KT 10SM CLR 17/09 A3024 RMK AO2 T01700086
KAXH 170315Z AUTO 02005KT 10SM CLR 17/09 A3023 RMK AO2 T01720086
KAXH 170255Z AUTO 03004KT 10SM CLR 18/09 A3024 RMK AO2 T01770085
KAXH 170235Z AUTO 02004KT 10SM CLR 18/08 A3024 RMK AO2 T01780083
KAXH 170215Z AUTO 01004KT 10SM CLR 18/08 A3024 RMK AO2 T01820083
KAXH 170155Z AUTO 01005KT 10SM CLR 19/08 A3023 RMK AO2 T01850081
KAXH 170135Z AUTO 01004KT 10SM CLR 18/08 A3023 RMK AO2 T01830081
KAXH 170115Z AUTO 01003KT 10SM CLR 19/08 A3023 RMK AO2 T01850082
KAXH 170055Z AUTO 03003KT 10SM CLR 19/09 A3022 RMK AO2 T01850085
KAXH 170035Z AUTO 04005KT 10SM CLR 19/08 A3021 RMK AO2 T01880084
KAXH 170015Z AUTO 02004KT 10SM CLR 19/09 A3020 RMK AO2 T01920090
KAXH 162355Z AUTO 02004KT 10SM CLR 20/09 A3019 RMK AO2 T02040087 10249 20204
KAXH 162335Z AUTO 01003KT 10SM CLR 22/09 A3018 RMK AO2 T02160085
KAXH 162315Z AUTO 01006KT 10SM CLR 23/08 A3018 RMK AO2 T02260082
KAXH 162255Z AUTO 01006KT 10SM CLR 24/08 A3017 RMK AO2 T02350081
KAXH 162235Z AUTO 01008KT 10SM CLR 24/08 A3017 RMK AO2 T02370078
KAXH 162215Z AUTO 03010KT 10SM CLR 24/08 A3016 RMK AO2 T02410075
KAXH 162155Z AUTO 36009G16KT 10SM CLR 24/08 A3016 RMK AO2 T02410076
KAXH 162135Z AUTO 36011KT 10SM CLR 24/08 A3016 RMK AO2 T02420077
KAXH 162115Z AUTO 02010G18KT 10SM CLR 25/08 A3016 RMK AO2 T02460081
KAXH 162055Z AUTO 34010G14KT 10SM CLR 25/09 A3017 RMK AO2 T02450086
KAXH 162035Z AUTO 36009G16KT 330V030 10SM CLR 24/08 A3017 RMK AO2 T02410078
KAXH 162015Z AUTO 36010G16KT 10SM CLR 24/08 A3017 RMK AO2 T02380078
KAXH 161955Z AUTO 02009G14KT 10SM CLR 25/08 A3018 RMK AO2 T02450080
KAXH 161935Z AUTO 01007G17KT 10SM CLR 24/07 A3019 RMK AO2 T02410072
KAXH 161915Z AUTO 35013G18KT 10SM CLR 24/07 A3019 RMK AO2 T02390072
KAXH 161855Z AUTO 36009G19KT 10SM CLR 23/07 A3020 RMK AO2 T02320065
KAXH 161835Z AUTO 03010KT 10SM CLR 23/08 A3022 RMK AO2 T02320076
KAXH 161815Z AUTO 36012G17KT 10SM CLR 23/08 A3023 RMK AO2 T02330077
KAXH 161755Z AUTO 36010G17KT 10SM CLR 23/07 A3024 RMK AO2 T02260071 10230 20160
KAXH 161735Z AUTO 36012G15KT 10SM CLR 23/08 A3025 RMK AO2 T02300079
KAXH 161715Z AUTO 03013G19KT 10SM CLR 22/08 A3025 RMK AO2 T02240076
KAXH 161655Z AUTO 03012KT 10SM CLR 21/08 A3026 RMK AO2 T02120075
KAXH 161635Z AUTO 02010G16KT 10SM CLR 21/08 A3027 RMK AO2 T02110083
KAXH 161615Z AUTO 02013G18KT 10SM CLR 20/08 A3028 RMK AO2 T02040082
KAXH 161555Z AUTO 02012G18KT 10SM CLR 20/08 A3028 RMK AO2 T02000084
KAXH 161535Z AUTO 02016G21KT 10SM CLR 20/09 A3028 RMK AO2 T01950088
KAXH 161515Z AUTO 03011G22KT 10SM CLR 19/09 A3028 RMK AO2 T01910090
KAXH 161455Z AUTO 04015G21KT 10SM CLR 19/09 A3028 RMK AO2 T01860092
KAXH 161435Z AUTO 03015G22KT 10SM CLR 18/09 A3028 RMK AO2 T01800092
KAXH 161415Z AUTO 03016G23KT 10SM CLR 18/09 A3028 RMK AO2 T01750090
KAXH 161355Z AUTO 02008KT 10SM CLR 17/10 A3027 RMK AO2 T01720095